If you wish to contribute or participate in the discussions about articles you are invited to join SKYbrary as a registered user

 Actions

Ayers Rock Connellan Airport

From SKYbrary Wiki

YAYE
Airport
ICAO: YAYE – IATA: AYQ
Summary
Name Ayers Rock Connellan Airport
Region Asia and Pacific
Territory "YA" is not in the list (AG, AN, AY, BG, BI, BK, C, CT, DA, DB, ...) of allowed values for the "ICAO Territory" property.
Location , Northern Territory
Serving Uluru
Elevation 495.605 m
1,626 ft
1,626 ft495.605 m
Type medium airport
Coordinates 25° 11' 10.00" S, 130° 58' 32.00" E
Runways
Designator Length Width Surface ROPS
13/31 2599 m8,526.903 ft
30 m98.425 ft
ASP yes/yes


METAR
Observation YAYE 270200Z AUTO 05010KT 050V110 9999 // NCD 26/04 Q1020
Station Ayers Rock
Date/Time 27 March 2019 02:00:00
Wind direction 50°
Wind speed 10 kts
Lowest cloud amount no clouds detected
Temperature 26°C
Dew point 4°C
Humidity 24%
QNH 1020 hPa
Weather condition n/a